createdAt,value
2019-04-26T00:00:38.348Z,19.10
2019-04-26T00:02:52.137Z,17.75
2019-04-26T00:05:00.478Z,17.92
2019-04-26T00:07:09.670Z,18.70
2019-04-26T00:09:27.969Z,19.30
2019-04-26T00:11:43.571Z,19.48
2019-04-26T00:14:25.568Z,18.60
2019-04-26T00:16:56.013Z,18.05
2019-04-26T00:19:03.886Z,17.40
2019-04-26T00:21:11.937Z,16.32
2019-04-26T00:23:19.963Z,18.42
2019-04-26T00:25:27.882Z,17.67
2019-04-26T00:27:35.719Z,16.00
2019-04-26T00:29:43.518Z,17.00
2019-04-26T00:31:51.424Z,17.00
2019-04-26T00:33:59.353Z,16.80
2019-04-26T00:36:07.160Z,16.42
2019-04-26T00:38:14.837Z,17.35
2019-04-26T00:40:22.545Z,17.55
2019-04-26T00:42:32.531Z,16.50
2019-04-26T00:44:41.881Z,15.63
2019-04-26T00:46:54.416Z,14.75
2019-04-26T00:49:05.667Z,16.07
2019-04-26T00:51:15.316Z,16.85
2019-04-26T00:53:25.494Z,16.90
2019-04-26T00:55:35.332Z,15.40
2019-04-26T00:57:44.119Z,15.28
2019-04-26T00:59:53.393Z,16.15
2019-04-26T01:02:08.479Z,15.20
2019-04-26T01:04:17.087Z,15.60
2019-04-26T01:06:26.918Z,15.10
2019-04-26T01:08:34.782Z,16.02
2019-04-26T01:10:42.596Z,14.90
2019-04-26T01:12:50.487Z,16.15
2019-04-26T01:14:58.294Z,16.42
2019-04-26T01:17:06.028Z,15.10
2019-04-26T01:19:18.516Z,14.15
2019-04-26T01:21:30.550Z,14.30
2019-04-26T01:23:41.965Z,14.60
2019-04-26T01:26:07.890Z,15.90
2019-04-26T01:28:31.870Z,16.10
2019-04-26T01:30:40.910Z,16.85
2019-04-26T01:32:49.313Z,14.53
2019-04-26T01:34:58.198Z,15.55
2019-04-26T01:37:06.337Z,14.63
2019-04-26T01:39:19.689Z,16.90
2019-04-26T01:41:38.677Z,15.20
2019-04-26T01:44:07.926Z,16.17
2019-04-26T01:46:24.817Z,14.68
2019-04-26T01:48:47.635Z,16.55
2019-04-26T01:50:55.589Z,15.70
2019-04-26T01:53:06.195Z,16.67
2019-04-26T01:55:14.844Z,16.50
2019-04-26T01:57:27.304Z,16.17
2019-04-26T01:59:40.954Z,17.20
2019-04-26T02:02:09.316Z,15.15
2019-04-26T02:04:17.166Z,16.27
2019-04-26T02:06:32.018Z,17.73
2019-04-26T02:08:34.717Z,16.40
2019-04-26T02:10:42.485Z,17.03
2019-04-26T02:12:51.415Z,16.60
2019-04-26T02:14:59.146Z,16.00
2019-04-26T02:17:07.161Z,15.35
2019-04-26T02:19:15.153Z,15.80
2019-04-26T02:21:37.644Z,17.05
2019-04-26T02:23:55.163Z,16.60
2019-04-26T02:26:21.538Z,15.50
2019-04-26T02:28:30.336Z,15.43
2019-04-26T02:30:38.554Z,15.73
2019-04-26T02:32:46.312Z,14.98
2019-04-26T02:34:54.418Z,15.47
2019-04-26T02:37:06.437Z,15.87
2019-04-26T02:39:29.377Z,15.97
2019-04-26T02:41:37.699Z,16.10
2019-04-26T02:43:49.460Z,18.03
2019-04-26T02:46:13.787Z,16.43
2019-04-26T02:48:34.836Z,16.37
2019-04-26T02:50:50.179Z,14.57
2019-04-26T02:53:24.883Z,15.90
2019-04-26T02:56:13.941Z,15.63
2019-04-26T02:58:25.062Z,15.77
2019-04-26T03:00:33.944Z,15.90
2019-04-26T03:02:44.111Z,15.80
2019-04-26T03:04:57.335Z,15.90
2019-04-26T03:07:13.385Z,17.07
2019-04-26T03:09:22.997Z,17.90
2019-04-26T03:11:35.184Z,17.47
2019-04-26T03:14:18.429Z,16.30
2019-04-26T03:16:39.465Z,15.40
2019-04-26T03:19:00.697Z,22.00
2019-04-26T03:21:21.372Z,15.53
2019-04-26T03:23:59.638Z,16.43
2019-04-26T03:27:03.757Z,14.77
2019-04-26T03:29:35.416Z,15.83
2019-04-26T03:32:23.849Z,14.50
2019-04-26T03:35:00.276Z,15.70
2019-04-26T03:38:05.722Z,15.90
2019-04-26T03:40:40.279Z,15.67
2019-04-26T03:43:36.979Z,14.77
2019-04-26T03:46:33.600Z,16.03
2019-04-26T03:49:45.851Z,15.77
2019-04-26T03:52:20.250Z,15.50
2019-04-26T03:54:32.575Z,14.80
2019-04-26T03:57:13.648Z,14.57
2019-04-26T03:59:53.452Z,15.13
2019-04-26T04:02:19.245Z,15.13
2019-04-26T04:04:53.167Z,15.43
2019-04-26T04:07:05.046Z,14.57
2019-04-26T04:09:17.939Z,14.63
2019-04-26T04:11:33.457Z,15.20
2019-04-26T04:14:26.630Z,14.93
2019-04-26T04:17:21.160Z,15.37
2019-04-26T04:20:40.504Z,14.80
2019-04-26T04:22:59.945Z,15.27
2019-04-26T04:25:13.493Z,16.13
2019-04-26T04:27:45.947Z,15.53
2019-04-26T04:30:31.826Z,15.53
2019-04-26T04:33:33.501Z,15.00
2019-04-26T04:35:53.230Z,14.53
2019-04-26T04:38:14.397Z,14.90
2019-04-26T04:41:18.552Z,14.97
2019-04-26T04:43:44.159Z,15.27
2019-04-26T04:47:24.322Z,14.53
2019-04-26T04:50:31.002Z,14.78
2019-04-26T04:53:19.157Z,14.03
2019-04-26T04:55:55.292Z,14.10
2019-04-26T04:58:20.794Z,14.43
2019-04-26T05:01:28.252Z,13.93
2019-04-26T05:04:10.459Z,13.72
2019-04-26T05:06:45.025Z,14.40
2019-04-26T05:09:29.573Z,13.55
2019-04-26T05:12:21.101Z,14.43
2019-04-26T05:15:13.903Z,14.05
2019-04-26T05:17:57.782Z,13.45
2019-04-26T05:20:35.026Z,13.95
2019-04-26T05:23:26.366Z,14.70
2019-04-26T05:26:58.328Z,13.55
2019-04-26T05:30:00.278Z,14.83
2019-04-26T05:32:27.415Z,14.70
2019-04-26T05:34:52.751Z,14.58
2019-04-26T05:37:55.558Z,14.65
2019-04-26T05:40:29.231Z,13.83
2019-04-26T05:43:35.975Z,13.70
2019-04-26T05:46:47.104Z,13.90
2019-04-26T05:49:56.248Z,13.72
2019-04-26T05:53:09.772Z,14.07
2019-04-26T05:56:48.125Z,13.18
2019-04-26T05:59:19.247Z,13.65
2019-04-26T06:02:03.313Z,13.65
2019-04-26T06:04:48.621Z,13.30
2019-04-26T06:07:30.058Z,14.10
2019-04-26T06:10:41.969Z,13.45
2019-04-26T06:13:35.328Z,13.55
2019-04-26T06:15:58.197Z,13.10
2019-04-26T06:18:55.797Z,13.40
2019-04-26T06:21:46.665Z,13.32
2019-04-26T06:24:39.991Z,14.15
2019-04-26T06:27:56.191Z,12.95
2019-04-26T06:30:45.553Z,13.30
2019-04-26T06:33:33.292Z,13.00
2019-04-26T06:35:46.281Z,13.43
2019-04-26T06:39:18.994Z,13.78
2019-04-26T06:42:24.872Z,13.20
2019-04-26T06:44:55.010Z,13.53
2019-04-26T06:47:35.739Z,12.70
2019-04-26T06:50:27.197Z,13.10
2019-04-26T06:52:43.005Z,13.53
2019-04-26T06:55:10.650Z,12.33
2019-04-26T06:58:14.311Z,12.58
2019-04-26T07:00:30.519Z,13.30
2019-04-26T07:03:15.825Z,12.70
2019-04-26T07:05:29.938Z,12.45
2019-04-26T07:08:28.109Z,12.35
2019-04-26T07:11:41.022Z,12.50
2019-04-26T07:14:54.726Z,12.37
2019-04-26T07:17:20.661Z,12.75
2019-04-26T07:20:36.397Z,11.50
2019-04-26T07:24:05.913Z,11.63
2019-04-26T07:27:11.467Z,11.88
2019-04-26T07:29:50.436Z,10.65
2019-04-26T07:32:29.019Z,12.18
2019-04-26T07:35:17.957Z,11.33
2019-04-26T07:38:21.112Z,10.80
2019-04-26T07:41:35.793Z,10.65
2019-04-26T07:44:43.607Z,11.75
2019-04-26T07:47:39.676Z,10.43
2019-04-26T07:50:55.441Z,10.43
2019-04-26T07:53:26.458Z,11.78
2019-04-26T07:55:58.952Z,10.55
2019-04-26T07:59:07.209Z,10.80
2019-04-26T08:01:55.749Z,9.55
2019-04-26T08:04:10.030Z,9.73
2019-04-26T08:06:52.298Z,10.78
2019-04-26T08:09:24.883Z,10.48
2019-04-26T08:11:38.258Z,10.98
2019-04-26T08:14:17.077Z,9.53
2019-04-26T08:16:44.483Z,9.80
2019-04-26T08:19:02.603Z,9.90
2019-04-26T08:21:23.143Z,10.30
2019-04-26T08:23:42.079Z,9.78
2019-04-26T08:25:54.652Z,9.55
2019-04-26T08:28:07.254Z,10.58
2019-04-26T08:30:19.365Z,9.80
2019-04-26T08:32:33.413Z,10.93
2019-04-26T08:34:45.807Z,10.60
2019-04-26T08:37:09.071Z,9.40
2019-04-26T08:39:44.506Z,9.93
2019-04-26T08:41:42.061Z,9.65
2019-04-26T08:44:14.454Z,8.93
2019-04-26T08:46:43.307Z,8.33
2019-04-26T08:49:11.118Z,8.45
2019-04-26T08:51:21.990Z,8.53
2019-04-26T08:53:33.944Z,7.83
2019-04-26T08:55:45.523Z,8.45
2019-04-26T08:57:58.239Z,8.58
2019-04-26T09:00:12.333Z,8.40
2019-04-26T09:02:52.137Z,8.30
2019-04-26T09:05:25.013Z,8.35
2019-04-26T09:07:37.188Z,8.90
2019-04-26T09:09:57.187Z,8.88
2019-04-26T09:12:03.922Z,8.00
2019-04-26T09:14:13.700Z,8.58
2019-04-26T09:16:23.189Z,9.38
2019-04-26T09:18:42.410Z,8.45
2019-04-26T09:20:42.816Z,9.25
2019-04-26T09:23:21.448Z,9.35
2019-04-26T09:25:34.508Z,8.35
2019-04-26T09:27:47.962Z,9.95
2019-04-26T09:30:17.351Z,9.30
2019-04-26T09:32:29.407Z,9.63
2019-04-26T09:34:41.320Z,9.35
2019-04-26T09:36:46.811Z,8.23
2019-04-26T09:38:54.521Z,9.68
2019-04-26T09:41:02.262Z,16.42
2019-04-26T09:43:31.573Z,11.45
2019-04-26T09:46:01.078Z,9.98
2019-04-26T09:48:45.837Z,7.60
2019-04-26T09:50:54.314Z,8.23
2019-04-26T09:53:02.096Z,8.50
2019-04-26T09:55:10.097Z,22.17
2019-04-26T09:57:17.857Z,19.27
2019-04-26T09:59:25.783Z,8.45
2019-04-26T10:01:34.075Z,8.38
2019-04-26T10:03:42.260Z,7.87
2019-04-26T10:05:52.161Z,7.90
2019-04-26T10:07:59.843Z,7.83
2019-04-26T10:10:08.147Z,8.10
2019-04-26T10:12:34.004Z,7.92
2019-04-26T10:14:53.531Z,7.47
2019-04-26T10:17:11.553Z,7.12
2019-04-26T10:19:31.653Z,7.00
2019-04-26T10:21:39.605Z,7.72
2019-04-26T10:23:47.318Z,7.05
2019-04-26T10:25:55.327Z,7.35
2019-04-26T10:28:03.885Z,7.08
2019-04-26T10:30:14.801Z,7.45
2019-04-26T10:32:26.278Z,7.22
2019-04-26T10:34:32.048Z,6.75
2019-04-26T10:36:39.841Z,6.03
2019-04-26T10:38:47.805Z,5.47
2019-04-26T10:40:55.630Z,6.70
2019-04-26T10:43:04.426Z,6.78
2019-04-26T10:45:14.651Z,5.20
2019-04-26T10:47:22.243Z,5.62
2019-04-26T10:49:44.749Z,6.20
2019-04-26T10:51:52.504Z,6.15
2019-04-26T10:54:10.338Z,5.08
2019-04-26T10:56:35.721Z,4.95
2019-04-26T10:58:48.320Z,5.37
2019-04-26T11:00:57.555Z,4.62
2019-04-26T11:03:06.170Z,4.55
2019-04-26T11:05:18.291Z,4.12
2019-04-26T11:07:23.992Z,4.58
2019-04-26T11:09:32.178Z,5.58
2019-04-26T11:11:41.023Z,5.28
2019-04-26T11:13:48.854Z,5.10
2019-04-26T11:15:56.950Z,5.42
2019-04-26T11:18:04.947Z,4.72
2019-04-26T11:20:13.304Z,4.85
2019-04-26T11:22:28.933Z,4.58
2019-04-26T11:24:30.449Z,4.47
2019-04-26T11:26:37.937Z,5.55
2019-04-26T11:28:45.862Z,5.78
2019-04-26T11:30:55.844Z,5.33
2019-04-26T11:33:03.153Z,6.28
2019-04-26T11:35:11.013Z,5.35
2019-04-26T11:37:19.410Z,5.22
2019-04-26T11:39:28.234Z,5.25
2019-04-26T11:41:37.636Z,5.42
2019-04-26T11:43:49.071Z,5.75
2019-04-26T11:46:04.302Z,5.55
2019-04-26T11:48:04.895Z,6.15
2019-04-26T11:50:16.082Z,6.03
2019-04-26T11:52:23.566Z,6.17
2019-04-26T11:54:31.432Z,5.70
2019-04-26T11:56:39.245Z,5.25
2019-04-26T11:58:47.061Z,5.20
2019-04-26T12:00:58.902Z,5.55
2019-04-26T12:03:06.323Z,4.87
2019-04-26T12:05:23.857Z,5.10
2019-04-26T12:07:35.511Z,4.90
2019-04-26T12:09:47.383Z,4.60
2019-04-26T12:12:04.561Z,4.87
2019-04-26T12:14:04.649Z,4.80
2019-04-26T12:16:14.741Z,3.98
2019-04-26T12:18:22.377Z,4.53
2019-04-26T12:20:29.797Z,4.12
2019-04-26T12:22:39.412Z,4.53
2019-04-26T12:24:46.837Z,4.62
2019-04-26T12:26:55.861Z,4.22
2019-04-26T12:29:04.168Z,4.40
2019-04-26T12:31:11.649Z,4.35
2019-04-26T12:33:19.047Z,4.58
2019-04-26T12:35:29.869Z,4.37
2019-04-26T12:37:36.209Z,4.62
2019-04-26T12:39:43.805Z,5.22
2019-04-26T12:41:51.646Z,4.78
2019-04-26T12:44:03.080Z,4.75
2019-04-26T12:46:31.951Z,5.42
2019-04-26T12:48:39.923Z,5.03
2019-04-26T12:50:47.861Z,4.97
2019-04-26T12:52:56.187Z,5.40
2019-04-26T12:55:05.493Z,4.70
2019-04-26T12:57:12.940Z,5.05
2019-04-26T12:59:24.888Z,5.33
2019-04-26T13:01:29.601Z,4.70
2019-04-26T13:03:37.083Z,4.80
2019-04-26T13:05:44.990Z,4.97
2019-04-26T13:07:54.479Z,5.40
2019-04-26T13:10:19.977Z,5.20
2019-04-26T13:12:43.993Z,4.72
2019-04-26T13:15:16.867Z,4.65
2019-04-26T13:17:25.623Z,5.03
2019-04-26T13:19:33.183Z,4.60
2019-04-26T13:21:40.872Z,4.97
2019-04-26T13:23:49.112Z,5.40
2019-04-26T13:25:59.639Z,5.15
2019-04-26T13:28:07.080Z,5.30
2019-04-26T13:30:16.748Z,5.20
2019-04-26T13:32:24.714Z,5.10
2019-04-26T13:34:33.360Z,4.90
2019-04-26T13:36:41.863Z,4.87
2019-04-26T13:38:49.887Z,6.20
2019-04-26T13:40:59.805Z,5.92
2019-04-26T13:43:07.945Z,5.92
2019-04-26T13:45:33.619Z,5.00
2019-04-26T13:48:09.123Z,5.65
2019-04-26T13:50:38.938Z,5.28
2019-04-26T13:52:46.860Z,5.05
2019-04-26T13:54:55.432Z,5.08
2019-04-26T13:57:06.107Z,4.87
2019-04-26T13:59:14.558Z,4.55
2019-04-26T14:01:22.599Z,5.37
2019-04-26T14:03:31.556Z,5.60
2019-04-26T14:05:40.379Z,5.10
2019-04-26T14:07:48.325Z,5.60
2019-04-26T14:09:56.268Z,5.55
2019-04-26T14:12:17.885Z,5.97
2019-04-26T14:14:14.152Z,5.60
2019-04-26T14:16:22.813Z,4.97
2019-04-26T14:18:34.534Z,5.65
2019-04-26T14:20:41.249Z,5.75
2019-04-26T14:23:01.331Z,5.22
2019-04-26T14:25:12.438Z,5.85
2019-04-26T14:27:34.017Z,5.78
2019-04-26T14:29:42.051Z,6.00
2019-04-26T14:31:51.492Z,6.05
2019-04-26T14:34:01.220Z,5.70
2019-04-26T14:36:17.429Z,5.50
2019-04-26T14:38:27.798Z,5.95
2019-04-26T14:40:29.993Z,5.78
2019-04-26T14:42:46.115Z,6.65
2019-04-26T14:44:49.700Z,5.10
2019-04-26T14:46:58.067Z,5.85
2019-04-26T14:49:11.407Z,5.80
2019-04-26T14:51:19.193Z,6.80
2019-04-26T14:53:26.971Z,5.95
2019-04-26T14:55:35.140Z,5.30
2019-04-26T14:57:46.777Z,6.80
2019-04-26T14:59:58.159Z,5.67
2019-04-26T15:02:28.067Z,7.20
2019-04-26T15:04:53.358Z,7.72
2019-04-26T15:07:02.404Z,6.92
2019-04-26T15:09:17.943Z,6.53
2019-04-26T15:11:22.785Z,6.47
2019-04-26T15:13:34.355Z,6.15
2019-04-26T15:15:40.192Z,5.80
2019-04-26T15:17:47.914Z,6.20
2019-04-26T15:19:56.056Z,6.50
2019-04-26T15:22:10.084Z,6.20
2019-04-26T15:24:13.568Z,5.92
2019-04-26T15:26:24.287Z,6.33
2019-04-26T15:28:32.822Z,5.75
2019-04-26T15:30:46.403Z,5.75
2019-04-26T15:32:50.641Z,6.42
2019-04-26T15:34:58.596Z,7.25
2019-04-26T15:37:06.685Z,6.08
2019-04-26T15:39:25.378Z,5.80
2019-04-26T15:41:59.435Z,6.33
2019-04-26T15:44:28.227Z,5.67
2019-04-26T15:47:10.098Z,6.00
2019-04-26T15:49:39.567Z,5.83
2019-04-26T15:51:47.418Z,6.37
2019-04-26T15:53:55.933Z,5.90
2019-04-26T15:56:04.210Z,5.22
2019-04-26T15:58:12.010Z,5.70
2019-04-26T16:00:22.402Z,6.28
2019-04-26T16:02:32.025Z,6.67
2019-04-26T16:04:40.136Z,6.08
2019-04-26T16:06:48.000Z,6.20
2019-04-26T16:08:55.913Z,6.20
2019-04-26T16:11:07.324Z,6.80
2019-04-26T16:13:21.029Z,6.03
2019-04-26T16:15:23.324Z,5.42
2019-04-26T16:17:31.343Z,4.83
2019-04-26T16:19:39.198Z,5.58
2019-04-26T16:21:48.133Z,4.95
2019-04-26T16:23:56.769Z,5.62
2019-04-26T16:26:04.580Z,5.17
2019-04-26T16:28:31.039Z,5.65
2019-04-26T16:30:54.068Z,5.50
2019-04-26T16:33:09.110Z,5.28
2019-04-26T16:37:26.424Z,5.33
2019-04-26T16:41:43.742Z,4.95
2019-04-26T16:43:53.514Z,5.53
2019-04-26T16:46:02.292Z,6.33
2019-04-26T16:48:10.284Z,5.92
2019-04-26T16:50:23.227Z,5.87
2019-04-26T16:52:27.890Z,5.83
2019-04-26T16:54:35.759Z,5.95
2019-04-26T16:56:43.939Z,6.10
2019-04-26T16:58:54.975Z,5.83
2019-04-26T17:00:31.375Z,5.40
2019-04-26T17:01:04.576Z,5.78
2019-04-26T17:03:11.168Z,6.42
2019-04-26T17:05:28.810Z,5.75
2019-04-26T17:07:29.138Z,6.12
2019-04-26T17:09:37.222Z,5.65
2019-04-26T17:09:55.807Z,6.12
2019-04-26T17:11:47.358Z,6.42
2019-04-26T17:13:57.014Z,5.53
2019-04-26T17:16:05.591Z,6.25
2019-04-26T17:18:13.892Z,6.70
2019-04-26T17:20:22.588Z,6.50
2019-04-26T17:22:56.972Z,6.37
2019-04-26T17:25:16.535Z,6.53
2019-04-26T17:27:25.718Z,6.62
2019-04-26T17:29:33.712Z,5.92
2019-04-26T17:31:43.126Z,6.83
2019-04-26T17:33:51.533Z,6.95
2019-04-26T17:36:03.083Z,7.08
2019-04-26T17:38:11.524Z,6.15
2019-04-26T17:40:25.079Z,6.28
2019-04-26T17:42:35.849Z,6.20
2019-04-26T17:44:41.118Z,6.90
2019-04-26T17:46:56.281Z,7.40
2019-04-26T17:49:00.421Z,6.37
2019-04-26T17:51:16.219Z,6.20
2019-04-26T17:53:28.122Z,7.80
2019-04-26T17:55:31.144Z,7.30
2019-04-26T17:57:43.647Z,7.37
2019-04-26T17:59:49.223Z,7.42
2019-04-26T18:02:00.755Z,7.53
2019-04-26T18:04:07.229Z,7.58
2019-04-26T18:06:15.691Z,8.23
2019-04-26T18:08:36.162Z,7.33
2019-04-26T18:10:35.497Z,8.38
2019-04-26T18:12:46.193Z,8.00
2019-04-26T18:14:54.386Z,7.80
2019-04-26T18:17:17.903Z,8.03
2019-04-26T18:19:54.067Z,8.93
2019-04-26T18:22:20.218Z,9.00
2019-04-26T18:24:32.247Z,9.73
2019-04-26T18:26:38.382Z,9.55
2019-04-26T18:28:51.747Z,10.53
2019-04-26T18:30:55.990Z,10.48
2019-04-26T18:33:04.014Z,10.68
2019-04-26T18:35:15.277Z,10.43
2019-04-26T18:37:23.103Z,10.75
2019-04-26T18:39:31.123Z,10.72
2019-04-26T18:41:40.121Z,10.23
2019-04-26T18:43:48.699Z,10.28
2019-04-26T18:45:58.654Z,10.75
2019-04-26T18:48:08.017Z,10.58
2019-04-26T18:50:18.734Z,10.58
2019-04-26T18:52:28.976Z,10.68
2019-04-26T18:54:54.879Z,10.65
2019-04-26T18:57:04.888Z,10.60
2019-04-26T18:59:15.501Z,10.50
2019-04-26T19:01:24.027Z,10.90
2019-04-26T19:03:33.795Z,11.80
2019-04-26T19:05:43.190Z,11.55
2019-04-26T19:07:51.696Z,11.68
2019-04-26T19:10:04.891Z,11.75
2019-04-26T19:12:13.503Z,11.90
2019-04-26T19:14:49.764Z,12.65
2019-04-26T19:17:26.004Z,13.62
2019-04-26T19:19:44.129Z,12.78
2019-04-26T19:21:54.882Z,14.25
2019-04-26T19:24:07.333Z,14.20
2019-04-26T19:26:14.058Z,13.55
2019-04-26T19:28:23.102Z,13.32
2019-04-26T19:30:31.786Z,14.18
2019-04-26T19:32:40.641Z,14.50
2019-04-26T19:34:52.386Z,13.72
2019-04-26T19:37:03.391Z,15.58
2019-04-26T19:39:12.946Z,14.45
2019-04-26T19:41:21.567Z,15.28
2019-04-26T19:43:34.665Z,16.27
2019-04-26T19:46:01.393Z,15.83
2019-04-26T19:48:22.306Z,18.85
2019-04-26T19:50:55.586Z,16.35
2019-04-26T19:53:21.138Z,17.87
2019-04-26T19:55:54.938Z,17.85
2019-04-26T19:58:05.335Z,18.10
2019-04-26T20:00:13.815Z,17.35
2019-04-26T20:02:21.749Z,15.55
2019-04-26T20:04:32.350Z,15.55
2019-04-26T20:06:41.408Z,16.55
2019-04-26T20:08:51.376Z,15.95
2019-04-26T20:10:58.947Z,15.05
2019-04-26T20:13:13.372Z,12.58
2019-04-26T20:15:25.856Z,13.25
2019-04-26T20:17:26.292Z,13.65
2019-04-26T20:19:37.509Z,11.93
2019-04-26T20:21:45.417Z,13.22
2019-04-26T20:23:54.726Z,12.78
2019-04-26T20:26:07.468Z,12.03
2019-04-26T20:28:14.107Z,11.75
2019-04-26T20:30:43.932Z,11.95
2019-04-26T20:32:52.508Z,11.48
2019-04-26T20:35:08.700Z,11.97
2019-04-26T20:37:22.862Z,12.33
2019-04-26T20:39:27.448Z,12.85
2019-04-26T20:41:35.668Z,12.60
2019-04-26T20:43:46.836Z,14.05
2019-04-26T20:46:10.891Z,12.90
2019-04-26T20:48:02.976Z,13.15
2019-04-26T20:50:12.255Z,14.30
2019-04-26T20:52:24.779Z,14.40
2019-04-26T20:54:31.569Z,14.65
2019-04-26T20:56:39.911Z,15.05
2019-04-26T20:58:48.014Z,14.03
2019-04-26T21:00:56.279Z,14.83
2019-04-26T21:03:06.104Z,14.00
2019-04-26T21:05:14.910Z,12.73
2019-04-26T21:07:23.650Z,13.18
2019-04-26T21:09:32.327Z,13.83
2019-04-26T21:11:41.240Z,13.78
2019-04-26T21:13:49.275Z,13.35
2019-04-26T21:15:58.616Z,11.97
2019-04-26T21:18:06.747Z,12.13
2019-04-26T21:20:15.188Z,12.85
2019-04-26T21:22:28.366Z,14.33
2019-04-26T21:24:36.764Z,14.03
2019-04-26T21:26:55.238Z,13.25
2019-04-26T21:29:24.135Z,13.68
2019-04-26T21:32:02.180Z,14.60
2019-04-26T21:34:15.255Z,13.53
2019-04-26T21:36:43.714Z,13.83
2019-04-26T21:39:08.595Z,13.62
2019-04-26T21:41:19.288Z,13.00
2019-04-26T21:43:29.545Z,14.68
2019-04-26T21:45:36.920Z,13.65
2019-04-26T21:47:44.801Z,13.10
2019-04-26T21:49:58.689Z,13.88
2019-04-26T21:52:02.063Z,13.65
2019-04-26T21:54:10.444Z,14.10
2019-04-26T21:56:18.300Z,13.85
2019-04-26T21:58:26.222Z,13.28
2019-04-26T22:00:53.630Z,13.62
2019-04-26T22:03:03.667Z,13.50
2019-04-26T22:05:12.632Z,14.20
2019-04-26T22:07:21.119Z,13.93
2019-04-26T22:09:37.709Z,13.70
2019-04-26T22:11:45.511Z,14.18
2019-04-26T22:14:13.229Z,13.60
2019-04-26T22:16:34.441Z,13.80
2019-04-26T22:18:56.807Z,13.72
2019-04-26T22:21:08.559Z,12.23
2019-04-26T22:23:38.152Z,15.03
2019-04-26T22:25:48.551Z,12.73
2019-04-26T22:28:00.211Z,12.40
2019-04-26T22:30:13.219Z,11.63
2019-04-26T22:32:22.925Z,12.53
2019-04-26T22:34:31.153Z,12.70
2019-04-26T22:36:39.166Z,12.78
2019-04-26T22:38:47.173Z,12.93
2019-04-26T22:40:56.237Z,13.08
2019-04-26T22:43:16.270Z,12.63
2019-04-26T22:45:44.172Z,13.55
2019-04-26T22:48:11.634Z,13.32
2019-04-26T22:50:21.043Z,13.15
2019-04-26T22:52:27.583Z,13.43
2019-04-26T22:54:37.725Z,13.03
2019-04-26T22:56:45.989Z,12.93
2019-04-26T22:58:53.923Z,12.37
2019-04-26T23:01:03.566Z,12.75
2019-04-26T23:03:11.568Z,14.03
2019-04-26T23:05:19.413Z,12.75
2019-04-26T23:07:27.299Z,13.40
2019-04-26T23:09:34.999Z,12.70
2019-04-26T23:11:46.634Z,12.82
2019-04-26T23:14:17.801Z,12.95
2019-04-26T23:17:01.660Z,12.82
2019-04-26T23:19:19.153Z,13.93
2019-04-26T23:21:30.192Z,12.68
2019-04-26T23:23:40.953Z,13.28
2019-04-26T23:25:47.632Z,12.13
2019-04-26T23:27:58.266Z,12.18
2019-04-26T23:30:05.351Z,13.25
2019-04-26T23:32:18.461Z,12.82
2019-04-26T23:34:22.827Z,13.08
2019-04-26T23:36:32.064Z,12.25
2019-04-26T23:38:39.943Z,12.73
2019-04-26T23:40:47.741Z,11.95
2019-04-26T23:42:55.765Z,12.70
2019-04-26T23:45:04.723Z,13.10
2019-04-26T23:47:21.095Z,12.93
2019-04-26T23:49:25.053Z,11.83
2019-04-26T23:51:31.368Z,12.93
2019-04-26T23:53:39.088Z,12.55
2019-04-26T23:55:46.951Z,12.15
2019-04-26T23:57:54.821Z,12.50
